Weather at Frankfurt-Egelsbach Airport

Public forecast

Using degrees Celsius for public forecast. Weather courtesy of forecast.io.

Closest aviation weather report (METAR) to Frankfurt-Egelsbach Airport

Closest report is Frankfurt Airport, 5.6 nm (10.4 km) NW.

2022/12/01 23:20 (retrieved 14 minutes ago)

EDDF 012320Z AUTO 04009KT CAVOK 04/01 Q1023 NOSIG

Closest aviation forecast (TAF) to Frankfurt-Egelsbach Airport

Closest forecast is Frankfurt Airport, 5.6 nm (10.4 km) NW.

2022/12/01 18:29 (retrieved 5 hours ago)

TAF EDDF 011700Z 0118/0224 03008KT 9999 BKN020 BECMG 0200/0203 BKN012 TEMPO 0204/0219 4000 -RASN BKN008 PROB30 TEMPO 0208/0212 2000 -SNRA BKN004 BECMG 0212/0214 BKN015